Time;durP1;ratioP1;P1;durP2;ratioP2;P2;SDS_P1;SDS_P2;PMS_P1;PMS_P2;Temp;Humidity;BMP_temperature;BMP_pressure;BME280_temperature;BME280_humidity;BME280_pressure;Samples;Min_cycle;Max_cycle;Signal;HPM_P1;HPM_P2
2021/07/17 18:04:46;;;;;;;;;5.00;5.00;;;;;;;;3514335;39;2678627;-75
2021/07/17 18:07:12;;;;;;;;;4.33;4.33;;;;;;;;3575817;39;114245;-73
2021/07/17 18:09:39;;;;;;;;;5.00;5.00;;;;;;;;3575321;39;111854;-73
2021/07/17 18:12:07;;;;;;;;;6.00;6.00;;;;;;;;3575940;39;113548;-76
2021/07/17 18:14:34;;;;;;;;;6.67;6.67;;;;;;;;3575167;39;113985;-73
2021/07/17 18:17:00;;;;;;;;;6.00;6.00;;;;;;;;3569676;39;112505;-82
2021/07/17 18:22:08;;;;;;;;;5.00;5.00;;;;;;;;3558218;39;111899;-76
2021/07/17 18:24:37;;;;;;;;;9.00;8.33;;;;;;;;3546901;39;113880;-77
2021/07/17 18:27:04;;;;;;;;;8.00;7.00;;;;;;;;3542621;39;112050;-80
2021/07/17 18:29:31;;;;;;;;;6.00;6.00;;;;;;;;3546376;39;113959;-76
2021/07/17 18:31:58;;;;;;;;;11.00;11.00;;;;;;;;3548842;39;114340;-74
2021/07/17 18:34:24;;;;;;;;;5.67;5.67;;;;;;;;3548054;39;112565;-76
2021/07/17 18:36:51;;;;;;;;;7.67;7.67;;;;;;;;3550322;39;113644;-74
2021/07/17 18:39:19;;;;;;;;;9.00;7.33;;;;;;;;3547892;39;113777;-74
2021/07/17 18:41:46;;;;;;;;;7.33;7.33;;;;;;;;3552656;39;112416;-73
2021/07/17 18:44:12;;;;;;;;;7.00;7.00;;;;;;;;3548157;39;113699;-73
2021/07/17 18:46:39;;;;;;;;;9.33;9.00;;;;;;;;3546462;39;113346;-73
2021/07/17 18:49:07;;;;;;;;;6.00;6.00;;;;;;;;3546975;39;113123;-73
2021/07/17 18:51:34;;;;;;;;;6.00;6.00;;;;;;;;3545074;39;114772;-72
2021/07/17 18:54:01;;;;;;;;;8.67;8.00;;;;;;;;3546078;39;111799;-75
2021/07/17 18:56:29;;;;;;;;;5.33;5.33;;;;;;;;3545576;39;113377;-73
2021/07/17 18:58:55;;;;;;;;;8.00;7.00;;;;;;;;3546330;39;113832;-73
2021/07/17 19:01:22;;;;;;;;;5.00;5.00;;;;;;;;3545562;39;112782;-73
2021/07/17 19:03:49;;;;;;;;;9.33;7.33;;;;;;;;3547804;39;113362;-73
2021/07/17 19:06:17;;;;;;;;;9.33;8.00;;;;;;;;3545771;39;111801;-74
2021/07/17 19:08:44;;;;;;;;;8.00;7.33;;;;;;;;3544625;39;113214;-72
2021/07/17 19:11:11;;;;;;;;;7.33;7.33;;;;;;;;3546324;39;113691;-75
2021/07/17 19:13:39;;;;;;;;;12.00;11.67;;;;;;;;3542819;39;112212;-76
2021/07/17 19:16:06;;;;;;;;;8.33;8.33;;;;;;;;3547957;39;113741;-79
2021/07/17 19:18:32;;;;;;;;;9.00;8.00;;;;;;;;3543219;39;115757;-81
2021/07/17 19:20:59;;;;;;;;;10.33;8.33;;;;;;;;3546748;39;112773;-81
2021/07/17 19:23:25;;;;;;;;;8.67;8.00;;;;;;;;3546306;39;113675;-79
2021/07/17 19:25:52;;;;;;;;;11.33;10.33;;;;;;;;3548398;39;114031;-78
2021/07/17 19:28:19;;;;;;;;;6.33;6.33;;;;;;;;3543064;39;113670;-79
2021/07/17 19:30:48;;;;;;;;;9.67;8.00;;;;;;;;3545773;39;114176;-80
2021/07/17 19:33:16;;;;;;;;;8.00;6.33;;;;;;;;3540022;39;112234;-76
2021/07/17 19:35:43;;;;;;;;;8.00;8.00;;;;;;;;3540213;39;113435;-82
2021/07/17 19:41:46;;;;;;;;;10.33;9.00;;;;;;;;3572595;39;112299;-75
2021/07/17 19:44:12;;;;;;;;;7.00;7.00;;;;;;;;3566617;39;114119;-75
2021/07/17 19:46:39;;;;;;;;;10.67;9.33;;;;;;;;3565387;39;112165;-74
2021/07/17 19:49:06;;;;;;;;;12.00;11.00;;;;;;;;3566917;39;113268;-76
2021/07/17 19:51:32;;;;;;;;;12.67;12.67;;;;;;;;3569861;39;114059;-75
2021/07/17 19:53:59;;;;;;;;;9.00;9.00;;;;;;;;3569681;39;112541;-76
2021/07/17 19:56:25;;;;;;;;;6.00;6.00;;;;;;;;3570623;39;113235;-78
2021/07/17 19:58:53;;;;;;;;;9.00;8.33;;;;;;;;3566167;39;113693;-79
2021/07/17 20:01:20;;;;;;;;;9.00;9.00;;;;;;;;3552768;39;112395;-82
2021/07/17 20:03:47;;;;;;;;;8.00;8.00;;;;;;;;3547375;39;114283;-76
2021/07/17 20:06:13;;;;;;;;;9.67;8.00;;;;;;;;3551349;39;112451;-77
2021/07/17 20:08:40;;;;;;;;;10.33;9.33;;;;;;;;3551175;39;113233;-76
2021/07/17 20:11:06;;;;;;;;;11.00;9.33;;;;;;;;3548471;39;113996;-74
2021/07/17 20:13:33;;;;;;;;;9.67;9.67;;;;;;;;3549114;39;111936;-78
2021/07/17 20:16:01;;;;;;;;;11.33;10.33;;;;;;;;3550530;39;113277;-78
2021/07/17 20:18:27;;;;;;;;;9.33;8.33;;;;;;;;3550423;39;114034;-79
2021/07/17 20:20:54;;;;;;;;;8.67;8.67;;;;;;;;3548829;39;111757;-78
2021/07/17 20:23:21;;;;;;;;;10.00;10.00;;;;;;;;3553500;39;113229;-80
2021/07/17 20:25:48;;;;;;;;;11.00;10.00;;;;;;;;3545928;39;111892;-80
2021/07/17 20:28:14;;;;;;;;;10.00;8.67;;;;;;;;3549354;39;113154;-81
2021/07/17 20:30:41;;;;;;;;;11.33;10.00;;;;;;;;3550639;39;114050;-79
2021/07/17 20:33:09;;;;;;;;;10.00;10.00;;;;;;;;3551070;39;112249;-78
2021/07/17 20:35:36;;;;;;;;;10.00;10.00;;;;;;;;3547480;39;112226;-75
2021/07/17 20:38:03;;;;;;;;;9.00;9.00;;;;;;;;3542025;39;129888;-79
2021/07/17 20:40:30;;;;;;;;;9.33;8.00;;;;;;;;3541186;39;112358;-79
2021/07/17 20:42:56;;;;;;;;;11.00;10.00;;;;;;;;3540826;39;113648;-72
2021/07/17 20:45:24;;;;;;;;;10.33;10.00;;;;;;;;3541072;39;114421;-77
2021/07/17 20:47:51;;;;;;;;;12.00;10.00;;;;;;;;3540664;39;113326;-80
2021/07/17 20:50:19;;;;;;;;;10.67;10.00;;;;;;;;3540310;39;114025;-74
2021/07/17 20:52:46;;;;;;;;;8.67;8.67;;;;;;;;3534329;39;111925;-80
2021/07/17 20:55:14;;;;;;;;;9.67;9.67;;;;;;;;3534263;39;113255;-79
2021/07/17 20:57:41;;;;;;;;;12.67;10.33;;;;;;;;3533700;39;113821;-78
2021/07/17 21:00:08;;;;;;;;;10.75;9.75;;;;;;;;3531848;39;113227;-80
2021/07/17 21:02:35;;;;;;;;;10.00;8.33;;;;;;;;3532424;39;113838;-79
2021/07/17 21:05:01;;;;;;;;;10.00;10.00;;;;;;;;3532173;39;113651;-76
2021/07/17 21:07:29;;;;;;;;;9.00;9.00;;;;;;;;3536061;39;112277;-73
2021/07/17 21:09:56;;;;;;;;;11.67;10.33;;;;;;;;3533064;39;113885;-73
2021/07/17 21:12:23;;;;;;;;;9.33;9.33;;;;;;;;3532490;39;112285;-71
2021/07/17 21:14:49;;;;;;;;;9.00;9.00;;;;;;;;3531432;39;113374;-72
2021/07/17 21:17:16;;;;;;;;;10.00;9.33;;;;;;;;3530910;39;114158;-71
2021/07/17 21:19:43;;;;;;;;;15.00;13.75;;;;;;;;3530729;39;113695;-75
2021/07/17 21:22:11;;;;;;;;;15.00;15.00;;;;;;;;3529403;39;113870;-75
2021/07/17 21:24:39;;;;;;;;;17.25;14.00;;;;;;;;3531884;39;113090;-75
2021/07/17 21:27:06;;;;;;;;;13.75;13.75;;;;;;;;3530847;39;112818;-74
2021/07/17 21:29:32;;;;;;;;;11.00;11.00;;;;;;;;3535741;39;113969;-75
2021/07/17 21:32:02;;;;;;;;;11.00;11.00;;;;;;;;3532699;39;112382;-74
2021/07/17 21:34:28;;;;;;;;;13.00;11.67;;;;;;;;3530362;39;114261;-74
2021/07/17 21:36:55;;;;;;;;;11.50;11.50;;;;;;;;3532309;39;124819;-71
2021/07/17 21:39:21;;;;;;;;;13.50;13.00;;;;;;;;3527659;39;111826;-74
2021/07/17 21:41:50;;;;;;;;;10.00;10.00;;;;;;;;3531488;39;113491;-74
2021/07/17 21:44:16;;;;;;;;;9.75;9.75;;;;;;;;3529462;39;114589;-75
2021/07/17 21:46:43;;;;;;;;;11.00;11.00;;;;;;;;3533563;39;112442;-74
2021/07/17 21:49:09;;;;;;;;;11.25;11.25;;;;;;;;3531194;39;113300;-74
2021/07/17 21:51:36;;;;;;;;;12.00;11.50;;;;;;;;3532700;39;112378;-74
2021/07/17 21:54:07;;;;;;;;;15.50;15.00;;;;;;;;3532437;39;113294;-70
2021/07/17 21:56:37;;;;;;;;;12.25;12.25;;;;;;;;3532610;39;113986;-76
2021/07/17 21:59:05;;;;;;;;;14.00;14.00;;;;;;;;3533843;39;111882;-77
2021/07/17 22:01:32;;;;;;;;;12.50;12.00;;;;;;;;3533812;39;113753;-72
2021/07/17 22:17:12;;;;;;;;;12.00;11.75;;;;;;;;3552254;39;112411;-75
2021/07/17 22:19:38;;;;;;;;;9.75;9.50;;;;;;;;3544487;39;113851;-74
2021/07/17 22:22:05;;;;;;;;;14.00;12.00;;;;;;;;3543129;39;112931;-74
2021/07/17 22:24:32;;;;;;;;;10.75;9.50;;;;;;;;3544108;39;113365;-70
2021/07/17 22:26:58;;;;;;;;;10.75;10.75;;;;;;;;3540243;39;113581;-69
2021/07/17 22:29:25;;;;;;;;;9.25;9.25;;;;;;;;3546314;39;111812;-70
2021/07/17 22:31:51;;;;;;;;;11.75;10.50;;;;;;;;3546212;39;113225;-71
2021/07/17 22:34:20;;;;;;;;;11.25;10.00;;;;;;;;3545581;39;113084;-71
2021/07/17 22:36:47;;;;;;;;;13.50;12.50;;;;;;;;3549049;39;111937;-72
2021/07/17 22:39:14;;;;;;;;;12.00;10.50;;;;;;;;3545294;39;113705;-70
2021/07/17 22:41:41;;;;;;;;;12.00;10.00;;;;;;;;3547026;39;111724;-71
2021/07/17 22:44:07;;;;;;;;;10.75;10.25;;;;;;;;3541903;39;112423;-71
2021/07/17 22:46:34;;;;;;;;;10.00;10.00;;;;;;;;3545042;39;116540;-70
2021/07/17 22:49:01;;;;;;;;;10.00;9.00;;;;;;;;3546687;39;112080;-70
2021/07/17 22:51:29;;;;;;;;;11.25;10.25;;;;;;;;3545880;39;112818;-70
2021/07/17 22:53:55;;;;;;;;;12.00;9.75;;;;;;;;3545892;39;114343;-71
2021/07/17 22:56:22;;;;;;;;;9.75;9.00;;;;;;;;3546116;39;111852;-71
2021/07/17 22:58:48;;;;;;;;;9.50;9.50;;;;;;;;3548131;39;113327;-70
2021/07/17 23:01:15;;;;;;;;;12.75;10.75;;;;;;;;3546695;39;112398;-72
2021/07/17 23:03:42;;;;;;;;;10.00;10.00;;;;;;;;3545214;39;113220;-71
2021/07/17 23:06:09;;;;;;;;;10.00;10.00;;;;;;;;3546510;39;114015;-71
2021/07/17 23:08:37;;;;;;;;;12.50;10.50;;;;;;;;3547219;39;112010;-71
2021/07/17 23:11:03;;;;;;;;;9.25;9.00;;;;;;;;3545203;39;113201;-71
2021/07/17 23:13:30;;;;;;;;;12.00;12.00;;;;;;;;3546283;39;113933;-72
2021/07/17 23:15:56;;;;;;;;;9.00;9.00;;;;;;;;3545720;39;112613;-71
2021/07/17 23:18:23;;;;;;;;;10.00;10.00;;;;;;;;3546167;39;113241;-72
2021/07/17 23:20:50;;;;;;;;;13.25;12.75;;;;;;;;3548359;39;114142;-72
2021/07/17 23:23:16;;;;;;;;;11.00;11.00;;;;;;;;3545739;39;113195;-70
2021/07/17 23:25:44;;;;;;;;;9.00;9.00;;;;;;;;3546138;39;113882;-70
2021/07/17 23:28:11;;;;;;;;;10.00;10.00;;;;;;;;3539517;39;112421;-72
2021/07/17 23:30:38;;;;;;;;;13.00;11.25;;;;;;;;3540194;39;113767;-71
2021/07/17 23:33:06;;;;;;;;;10.75;10.75;;;;;;;;3538034;39;113943;-72
2021/07/17 23:35:35;;;;;;;;;12.00;10.50;;;;;;;;3540172;39;112293;-73
2021/07/17 23:38:02;;;;;;;;;10.00;9.00;;;;;;;;3538872;39;113424;-72
2021/07/17 23:40:28;;;;;;;;;8.00;8.00;;;;;;;;3539439;39;113922;-72
2021/07/17 23:42:59;;;;;;;;;13.00;10.75;;;;;;;;3542178;39;112037;-72
2021/07/17 23:45:25;;;;;;;;;12.75;10.50;;;;;;;;3539303;39;114434;-72
2021/07/17 23:47:52;;;;;;;;;10.00;10.00;;;;;;;;3537440;39;111902;-72
2021/07/17 23:50:18;;;;;;;;;11.00;10.00;;;;;;;;3538912;39;113720;-72
2021/07/17 23:52:45;;;;;;;;;11.00;11.00;;;;;;;;3539313;39;114471;-71
2021/07/17 23:55:12;;;;;;;;;11.75;11.50;;;;;;;;3538398;39;112136;-72
2021/07/17 23:57:39;;;;;;;;;12.00;10.25;;;;;;;;3538385;39;113289;-72
